^^
Station Historical Data
 
Daily Summary for February 23, 2018 Units:  Metric    English   Both
« Previous Day
Next Day »
Daily Weekly Monthly Yearly Custom
  Current: High: Low: Average:
Temperature: -16.4 °C -17.8 °C -18.5 °C -17.9 °C
Dew Point: -19.6 °C -17.8 °C -19.6 °C -18.8 °C
Humidity: 66% Humidity% 66% 88%
Wind Speed: 26.9km/h 0km/h 0km/h 15.4km/h
Wind Gust: 26.9km/h 0km/h - -
WindENE - - ENE
Pressure: 34659.1 hPa 0 hPa 34645.6 hPa -
Precipitation: 0 mm      
Historical Graphs
 
 
Tabular Data for February 23, 2018
Time Temperature Dew Point Pressure Wind Wind Speed Wind Gust Humidity Rainfall Rate (Hourly) solar Conditions
-17.8 °C -17.8 °C 0 hPa Calm     Humidity% 0 mm SolarRadiationWatts/m^2 W/m2 Conditions
00:01 -17.8 °C -18.8 °C 34682.8 hPa NNE 5.5 km/h 5.5 km/h 88% 0 mm 0.0 W/m2 CLR
00:06 -17.8 °C -18.8 °C 34682.8 hPa NE 15 km/h 15 km/h 88% 0 mm 0.0 W/m2 CLR
00:11 -17.8 °C -18.8 °C 34682.8 hPa East 9 km/h 9 km/h 88% 0 mm 0.0 W/m2 CLR
00:16 -17.9 °C -18.8 °C 34682.8 hPa ENE 9 km/h 9 km/h 88% 0 mm 0.0 W/m2 CLR
00:21 -17.9 °C -18.8 °C 34682.8 hPa NNE 8 km/h 8 km/h 89% 0 mm 0.0 W/m2 CLR
00:27 -17.9 °C -18.8 °C 34682.8 hPa NE 9 km/h 9 km/h 89% 0 mm 0.0 W/m2 CLR
00:32 -17.9 °C -18.8 °C 34693 hPa ESE 9 km/h 9 km/h 89% 0 mm 0.0 W/m2 CLR
00:37 -17.9 °C -18.8 °C 34682.8 hPa East 3.1 km/h 3.1 km/h 89% 0 mm 0.0 W/m2 CLR
00:42 -17.9 °C -18.8 °C 34682.8 hPa East 6 km/h 6 km/h 89% 0 mm 0.0 W/m2 FEW
00:47 -17.9 °C -18.8 °C 34682.8 hPa ENE 10.9 km/h 10.9 km/h 89% 0 mm 0.0 W/m2 FEW
00:52 -17.9 °C -18.8 °C 34682.8 hPa ENE 20.9 km/h 20.9 km/h 90% 0 mm 0.0 W/m2 FEW
00:57 -17.9 °C -18.7 °C 34682.8 hPa ENE 13.5 km/h 13.5 km/h 90% 0 mm 0.0 W/m2 FEW
01:02 -17.9 °C -18.7 °C 34682.8 hPa North 9 km/h 9 km/h 90% 0 mm 0.0 W/m2 FEW
01:07 -17.9 °C -18.7 °C 34682.8 hPa East 13.5 km/h 13.5 km/h 90% 0 mm 0.0 W/m2 FEW
01:12 -17.9 °C -18.7 °C 34682.8 hPa ENE 11.9 km/h 11.9 km/h 90% 0 mm 0.0 W/m2 FEW
01:17 -17.9 °C -18.7 °C 34682.8 hPa ESE 16.1 km/h 16.1 km/h 90% 0 mm 0.0 W/m2 FEW
01:22 -17.9 °C -18.7 °C 34682.8 hPa East 18.8 km/h 18.8 km/h 90% 0 mm 0.0 W/m2 FEW
01:27 -17.9 °C -18.7 °C 34682.8 hPa NE 16.1 km/h 16.1 km/h 90% 0 mm 0.0 W/m2 FEW
01:32 -17.9 °C -18.7 °C 34682.8 hPa East 15 km/h 15 km/h 90% 0 mm 0.0 W/m2 FEW
01:37 -17.9 °C -18.7 °C 34682.8 hPa ENE 16.1 km/h 16.1 km/h 90% 0 mm 0.0 W/m2 FEW
01:42 -17.8 °C -18.7 °C 34669.3 hPa ENE 17.9 km/h 17.9 km/h 90% 0 mm 0.0 W/m2 FEW
01:47 -17.8 °C -18.7 °C 34669.3 hPa NE 15 km/h 15 km/h 90% 0 mm 0.0 W/m2 FEW
01:52 -17.8 °C -18.7 °C 34669.3 hPa ENE 11.9 km/h 11.9 km/h 90% 0 mm 0.0 W/m2 FEW
01:57 -17.8 °C -18.6 °C 34669.3 hPa East 11.9 km/h 11.9 km/h 91% 0 mm 0.0 W/m2 FEW
02:02 -17.8 °C -18.6 °C 34669.3 hPa ENE 11.9 km/h 11.9 km/h 91% 0 mm 0.0 W/m2 FEW
02:07 -17.8 °C -18.6 °C 34669.3 hPa SE 17.9 km/h 17.9 km/h 91% 0 mm 0.0 W/m2 FEW
02:12 -17.9 °C -18.6 °C 34669.3 hPa NE 10.9 km/h 10.9 km/h 91% 0 mm 0.0 W/m2 FEW
02:17 -17.9 °C -18.6 °C 34669.3 hPa ENE 15 km/h 15 km/h 91% 0 mm 0.0 W/m2 FEW
02:22 -17.9 °C -18.6 °C 34669.3 hPa East 9 km/h 9 km/h 91% 0 mm 0.0 W/m2 FEW
02:28 -17.9 °C -18.7 °C 34669.3 hPa East 10.9 km/h 10.9 km/h 91% 0 mm 0.0 W/m2 FEW
02:33 -17.9 °C -18.7 °C 34669.3 hPa NE 13.5 km/h 13.5 km/h 91% 0 mm 0.0 W/m2 FEW
02:38 -17.9 °C -18.7 °C 34669.3 hPa ENE 13.5 km/h 13.5 km/h 91% 0 mm 0.0 W/m2 FEW
02:43 -17.9 °C -18.7 °C 34669.3 hPa NNE 18.8 km/h 18.8 km/h 91% 0 mm 0.0 W/m2 FEW
02:48 -18 °C -18.7 °C 34669.3 hPa ENE 11.9 km/h 11.9 km/h 91% 0 mm 0.0 W/m2 FEW
02:53 -18 °C -18.7 °C 34669.3 hPa East 15 km/h 15 km/h 92% 0 mm 0.0 W/m2 FEW
02:58 -18 °C -18.7 °C 34669.3 hPa ENE 11.9 km/h 11.9 km/h 92% 0 mm 0.0 W/m2 FEW
03:03 -18 °C -18.7 °C 34669.3 hPa North 11.9 km/h 11.9 km/h 91% 0 mm 0.0 W/m2 FEW
03:08 -18.1 °C -18.8 °C 34669.3 hPa East 15 km/h 15 km/h 91% 0 mm 0.0 W/m2 FEW
03:13 -18.1 °C -18.7 °C 34669.3 hPa NNE 11.9 km/h 11.9 km/h 92% 0 mm 0.0 W/m2 FEW
03:18 -18.1 °C -18.7 °C 34669.3 hPa ENE 13.5 km/h 13.5 km/h 92% 0 mm 0.0 W/m2 FEW
03:23 -18.2 °C -18.8 °C 34659.1 hPa ENE 15 km/h 15 km/h 92% 0 mm 0.0 W/m2 FEW
03:28 -18.2 °C -18.8 °C 34659.1 hPa East 15 km/h 15 km/h 92% 0 mm 0.0 W/m2 FEW
03:33 -18.2 °C -18.8 °C 34659.1 hPa NE 15 km/h 15 km/h 92% 0 mm 0.0 W/m2 FEW
03:38 -18.2 °C -18.8 °C 34659.1 hPa East 18.8 km/h 18.8 km/h 92% 0 mm 0.0 W/m2 FEW
03:43 -18.2 °C -18.8 °C 34659.1 hPa ESE 11.9 km/h 11.9 km/h 92% 0 mm 0.0 W/m2 FEW
03:48 -18.2 °C -18.8 °C 34659.1 hPa NE 11.9 km/h 11.9 km/h 92% 0 mm 0.0 W/m2 FEW
03:53 -18.2 °C -18.8 °C 34659.1 hPa NNE 15 km/h 15 km/h 92% 0 mm 0.0 W/m2 FEW
03:58 -18.2 °C -18.8 °C 34659.1 hPa NE 11.9 km/h 11.9 km/h 92% 0 mm 0.0 W/m2 FEW
04:03 -18.2 °C -18.8 °C 34659.1 hPa ENE 11.9 km/h 11.9 km/h 92% 0 mm 0.0 W/m2 FEW
04:08 -18.2 °C -18.8 °C 34659.1 hPa NNE 11.9 km/h 11.9 km/h 92% 0 mm 0.0 W/m2 FEW
04:13 -18.3 °C -18.9 °C 34659.1 hPa East 11.9 km/h 11.9 km/h 92% 0 mm 0.0 W/m2 FEW
04:18 -18.3 °C -18.9 °C 34659.1 hPa NE 11.9 km/h 11.9 km/h 92% 0 mm 0.0 W/m2 FEW
04:23 -18.3 °C -18.9 °C 34659.1 hPa East 16.1 km/h 16.1 km/h 92% 0 mm 0.0 W/m2 FEW
04:28 -18.3 °C -18.9 °C 34659.1 hPa ENE 16.1 km/h 16.1 km/h 92% 0 mm 0.0 W/m2 FEW
04:34 -18.3 °C -18.9 °C 34659.1 hPa East 11.9 km/h 11.9 km/h 92% 0 mm 0.0 W/m2 FEW
04:39 -18.3 °C -18.9 °C 34659.1 hPa NNE 9 km/h 9 km/h 92% 0 mm 0.0 W/m2 FEW
04:44 -18.3 °C -18.9 °C 34659.1 hPa NE 11.9 km/h 11.9 km/h 93% 0 mm 0.0 W/m2 FEW
04:49 -18.3 °C -18.9 °C 34659.1 hPa East 11.9 km/h 11.9 km/h 93% 0 mm 0.0 W/m2 FEW
04:54 -18.4 °C -18.9 °C 34659.1 hPa NE 8 km/h 8 km/h 93% 0 mm 0.0 W/m2 FEW
04:59 -18.4 °C -18.9 °C 34659.1 hPa NE 9 km/h 9 km/h 93% 0 mm 0.0 W/m2 FEW
05:04 -18.4 °C -18.9 °C 34659.1 hPa North 9 km/h 9 km/h 93% 0 mm 0.0 W/m2 FEW
05:09 -18.4 °C -18.9 °C 34659.1 hPa NE 9 km/h 9 km/h 93% 0 mm 0.0 W/m2 FEW
05:14 -18.4 °C -18.9 °C 34659.1 hPa North 9 km/h 9 km/h 93% 0 mm 0.0 W/m2 FEW
05:19 -18.4 °C -19 °C 34659.1 hPa NNE 9 km/h 9 km/h 93% 0 mm 0.0 W/m2 FEW
05:24 -18.4 °C -19 °C 34659.1 hPa NNE 6 km/h   93% 0 mm 0.0 W/m2 FEW
05:29 -18.4 °C -19 °C 34659.1 hPa NE 9 km/h 9 km/h 93% 0 mm 0.0 W/m2 FEW
05:34 -18.4 °C -19 °C 34659.1 hPa NE 11.9 km/h 11.9 km/h 93% 0 mm 0.0 W/m2 FEW
05:39 -18.4 °C -18.9 °C 34659.1 hPa NNE 13.5 km/h 13.5 km/h 93% 0 mm 0.0 W/m2 CLR
05:44 -18.4 °C -18.9 °C 34659.1 hPa North 11.9 km/h 11.9 km/h 93% 0 mm 0.0 W/m2 CLR
05:49 -18.4 °C -18.9 °C 34659.1 hPa NE 15 km/h 15 km/h 93% 0 mm 0.0 W/m2 CLR
05:54 -18.4 °C -18.9 °C 34659.1 hPa NNE 11.9 km/h 11.9 km/h 93% 0 mm 0.0 W/m2 CLR
05:59 -18.4 °C -19 °C 34659.1 hPa NE 3.1 km/h   93% 0 mm 0.0 W/m2 CLR
06:04 -18.4 °C -19 °C 34659.1 hPa East 11.9 km/h 11.9 km/h 93% 0 mm 0.0 W/m2 CLR
06:09 -18.4 °C -19 °C 34659.1 hPa NNE 8 km/h 8 km/h 93% 0 mm 0.0 W/m2 CLR
06:14 -18.4 °C -19 °C 34645.6 hPa North 5.5 km/h 5.5 km/h 93% 0 mm 0.0 W/m2 CLR
06:19 -18.4 °C -19 °C 34645.6 hPa North 5.5 km/h 5.5 km/h 93% 0 mm 0.0 W/m2 CLR
06:24 -18.4 °C -19 °C 34659.1 hPa NNE 6 km/h 6 km/h 93% 0 mm 0.0 W/m2 CLR
06:29 -18.4 °C -19 °C 34659.1 hPa North 3.1 km/h 3.1 km/h 93% 0 mm 0.0 W/m2 CLR
06:34 -18.4 °C -19 °C 34659.1 hPa ENE 16.1 km/h 16.1 km/h 93% 0 mm 0.0 W/m2 CLR
06:39 -18.4 °C -19 °C 34659.1 hPa North 11.9 km/h 11.9 km/h 93% 0 mm 0.0 W/m2 CLR
06:44 -18.4 °C -19 °C 34659.1 hPa Calm     93% 0 mm 0.0 W/m2 CLR
06:50 -18.4 °C -19 °C 34659.1 hPa NNE 9 km/h 9 km/h 93% 0 mm 0.0 W/m2 CLR
06:55 -18.4 °C -19 °C 34659.1 hPa North 16.1 km/h 16.1 km/h 93% 0 mm 0.0 W/m2 CLR
07:00 -18.4 °C -19 °C 34659.1 hPa NE 9 km/h 9 km/h 93% 0 mm 0.0 W/m2 CLR
07:05 -18.4 °C -19 °C 34659.1 hPa NE 15 km/h 15 km/h 93% 0 mm 0.0 W/m2 CLR
07:10 -18.4 °C -19 °C 34659.1 hPa SE 10.9 km/h 10.9 km/h 93% 0 mm 0.0 W/m2 OVC
07:15 -18.4 °C -19 °C 34659.1 hPa NE 8 km/h 8 km/h 93% 0 mm 0.0 W/m2 OVC
07:20 -18.4 °C -19 °C 34669.3 hPa NNE 11.9 km/h 11.9 km/h 93% 0 mm 0.0 W/m2 OVC
07:25 -18.4 °C -19 °C 34669.3 hPa NE 10.9 km/h 10.9 km/h 93% 0 mm 0.0 W/m2 OVC
07:30 -18.4 °C -19 °C 34669.3 hPa NE 11.9 km/h 11.9 km/h 93% 0 mm 0.0 W/m2 OVC
07:35 -18.4 °C -19 °C 34669.3 hPa NE 16.1 km/h 16.1 km/h 93% 0 mm 0.0 W/m2 OVC
07:40 -18.4 °C -19 °C 34669.3 hPa ENE 15 km/h 15 km/h 93% 0 mm 0.0 W/m2 BKN
07:45 -18.4 °C -19 °C 34669.3 hPa East 16.1 km/h 16.1 km/h 93% 0 mm 5.0 W/m2 BKN
07:50 -18.4 °C -19 °C 34669.3 hPa NNE 9 km/h 9 km/h 93% 0 mm 7.0 W/m2 BKN
07:55 -18.5 °C -19.1 °C 34669.3 hPa ESE 11.9 km/h 11.9 km/h 93% 0 mm 9.0 W/m2 BKN
08:00 -18.5 °C -19.1 °C 34669.3 hPa NE 3.1 km/h 3.1 km/h 93% 0 mm 11.0 W/m2 BKN
08:05 -18.5 °C -19.1 °C 34669.3 hPa NE 10.9 km/h 10.9 km/h 93% 0 mm 12.0 W/m2 BKN
08:10 -18.5 °C -19.1 °C 34669.3 hPa East 16.1 km/h 16.1 km/h 93% 0 mm 12.0 W/m2 BKN
08:15 -18.5 °C -19.1 °C 34669.3 hPa ENE 9 km/h 9 km/h 93% 0 mm 16.0 W/m2 BKN
08:20 -18.5 °C -19.1 °C 34669.3 hPa ENE 9 km/h   93% 0 mm 18.0 W/m2 BKN
08:25 -18.5 °C -19.1 °C 34669.3 hPa NNE 11.9 km/h 11.9 km/h 93% 0 mm 23.0 W/m2 BKN
08:30 -18.5 °C -19.1 °C 34669.3 hPa East 15 km/h 15 km/h 93% 0 mm 30.0 W/m2 BKN
08:35 -18.4 °C -19 °C 34669.3 hPa NNE 9 km/h 9 km/h 93% 0 mm 35.0 W/m2 BKN
08:40 -18.4 °C -19 °C 34669.3 hPa ENE 3.1 km/h   93% 0 mm 39.0 W/m2 SCT
08:45 -18.4 °C -18.9 °C 34682.8 hPa East 9 km/h 9 km/h 93% 0 mm 42.0 W/m2 SCT
08:50 -18.4 °C -18.9 °C 34669.3 hPa NE 15 km/h 15 km/h 93% 0 mm 49.0 W/m2 SCT
08:55 -18.3 °C -18.8 °C 34682.8 hPa East 11.9 km/h 11.9 km/h 93% 0 mm 54.0 W/m2 SCT
09:01 -18.3 °C -18.8 °C 34682.8 hPa NNE 13.5 km/h 13.5 km/h 93% 0 mm 54.0 W/m2 SCT
09:06 -18.2 °C -18.8 °C 34682.8 hPa East 24.3 km/h 24.3 km/h 93% 0 mm 62.0 W/m2 SCT
09:11 -18.2 °C -18.7 °C 34682.8 hPa ENE 16.1 km/h 16.1 km/h 93% 0 mm 69.0 W/m2 SCT
09:16 -18.2 °C -18.7 °C 34682.8 hPa NE 11.9 km/h 11.9 km/h 93% 0 mm 69.0 W/m2 SCT
09:21 -18.1 °C -18.7 °C 34682.8 hPa East 11.9 km/h 11.9 km/h 93% 0 mm 83.0 W/m2 SCT
09:26 -18.1 °C -18.7 °C 34682.8 hPa NNE 29.5 km/h 29.5 km/h 93% 0 mm 97.0 W/m2 SCT
09:31 -18.1 °C -18.7 °C 34682.8 hPa East 26.9 km/h 26.9 km/h 92% 0 mm 111.0 W/m2 SCT
09:36 -18.1 °C -18.7 °C 34682.8 hPa SSE 26.9 km/h 26.9 km/h 92% 0 mm 95.0 W/m2 SCT
09:41 -18.1 °C -18.7 °C 34682.8 hPa East 21.6 km/h 21.6 km/h 92% 0 mm 104.0 W/m2 BKN
09:47 -18.1 °C -18.7 °C 34682.8 hPa East 18.8 km/h 18.8 km/h 92% 0 mm 118.0 W/m2 BKN
09:52 -18.1 °C -18.7 °C 34682.8 hPa ENE 18.8 km/h 18.8 km/h 92% 0 mm 127.0 W/m2 BKN
09:57 -18 °C -18.7 °C 34669.3 hPa East 15 km/h 15 km/h 92% 0 mm 162.0 W/m2 BKN
10:02 -17.9 °C -18.6 °C 34669.3 hPa ENE 24.3 km/h 24.3 km/h 92% 0 mm 290.0 W/m2 BKN
10:07 -17.8 °C -18.4 °C 34682.8 hPa East 17.9 km/h 17.9 km/h 92% 0 mm 272.0 W/m2 BKN
10:12 -17.6 °C -18.3 °C 34682.8 hPa ESE 26.9 km/h 26.9 km/h 92% 0 mm 272.0 W/m2 BKN
10:18 -17.4 °C -18.2 °C 34682.8 hPa ENE 21.6 km/h 21.6 km/h 91% 0 mm 292.0 W/m2 BKN
10:23 -17.4 °C -18.2 °C 34682.8 hPa East 18.8 km/h 18.8 km/h 90% 0 mm 304.0 W/m2 BKN
10:28 -17.4 °C -18.4 °C 34682.8 hPa East 32.8 km/h 32.8 km/h 88% 0 mm 255.0 W/m2 BKN
10:33 -17.4 °C -18.5 °C 34682.8 hPa ENE 29.8 km/h 29.8 km/h 87% 0 mm 323.0 W/m2 BKN
10:38 -17.3 °C -18.5 °C 34682.8 hPa East 24.3 km/h 24.3 km/h 86% 0 mm 330.0 W/m2 BKN
10:43 -17.3 °C -18.4 °C 34682.8 hPa East 24.3 km/h 24.3 km/h 86% 0 mm 346.0 W/m2 BKN
10:48 -17.2 °C -18.5 °C 34669.3 hPa NNE 18.8 km/h 18.8 km/h 84% 0 mm 353.0 W/m2 BKN
10:53 -17 °C -18.3 °C 34669.3 hPa East 29.5 km/h 29.5 km/h 84% 0 mm 357.0 W/m2 BKN
10:58 -16.9 °C -18.4 °C 34682.8 hPa NNE 18.8 km/h 18.8 km/h 83% 0 mm 353.0 W/m2 BKN
11:03 -17 °C -18.6 °C 34669.3 hPa East 24.3 km/h 24.3 km/h 81% 0 mm 353.0 W/m2 BKN
11:09 -17 °C -18.6 °C 34669.3 hPa NE 21.6 km/h 21.6 km/h 81% 0 mm 371.0 W/m2 BKN
11:14 -16.8 °C -18.4 °C 34669.3 hPa East 21.6 km/h 21.6 km/h 81% 0 mm 374.0 W/m2 BKN
11:19 -16.7 °C -18.4 °C 34669.3 hPa NE 21.6 km/h 21.6 km/h 80% 0 mm 376.0 W/m2 BKN
11:24 -16.7 °C -18.5 °C 34669.3 hPa East 26.9 km/h 26.9 km/h 79% 0 mm 424.0 W/m2 BKN
11:29 -16.6 °C -18.4 °C 34669.3 hPa NE 32.8 km/h 32.8 km/h 79% 0 mm 396.0 W/m2 BKN
11:34 -16.6 °C -18.3 °C 34669.3 hPa ENE 26.9 km/h 26.9 km/h 80% 0 mm 367.0 W/m2 BKN
11:39 -16.7 °C -18.4 °C 34669.3 hPa East 18.8 km/h 18.8 km/h 80% 0 mm 362.0 W/m2 BKN
11:44 -16.7 °C -18.4 °C 34669.3 hPa East 18.8 km/h 18.8 km/h 80% 0 mm 410.0 W/m2 BKN
11:49 -16.7 °C -18.5 °C 34669.3 hPa ESE 32.8 km/h 32.8 km/h 79% 0 mm 313.0 W/m2 BKN
11:54 -16.7 °C -18.5 °C 34669.3 hPa ESE 26.9 km/h 26.9 km/h 79% 0 mm 450.0 W/m2 BKN
11:59 -16.6 °C -18.4 °C 34669.3 hPa ENE 26.9 km/h 26.9 km/h 79% 0 mm 471.0 W/m2 BKN
12:04 -16.5 °C -18.3 °C 34669.3 hPa ENE 18.8 km/h 18.8 km/h 79% 0 mm 461.0 W/m2 BKN
12:09 -16.5 °C -18.6 °C 34669.3 hPa East 24.3 km/h 24.3 km/h 76% 0 mm 490.0 W/m2 BKN
12:14 -16.5 °C -18.7 °C 34659.1 hPa ENE 26.9 km/h 26.9 km/h 75% 0 mm 454.0 W/m2 BKN
12:19 -16.6 °C -19.2 °C 34659.1 hPa ENE 41.7 km/h 41.7 km/h 71% 0 mm 490.0 W/m2 BKN
12:24 -16.6 °C -19.3 °C 34659.1 hPa SE 15 km/h 15 km/h 70% 0 mm 155.0 W/m2 BKN
12:29 -16.6 °C -19.5 °C 34659.1 hPa East 35.7 km/h 35.7 km/h 68% 0 mm 250.0 W/m2 BKN
12:34 -16.6 °C -19.4 °C 34659.1 hPa ESE 35.7 km/h 35.7 km/h 69% 0 mm 515.0 W/m2 BKN
12:39 -16.5 °C -19.3 °C 34659.1 hPa NE 26.9 km/h 26.9 km/h 69% 0 mm 504.0 W/m2 BKN
12:44 -16.3 °C -19 °C 34659.1 hPa East 26.9 km/h 26.9 km/h 70% 0 mm 531.0 W/m2 BKN
12:49 -16.1 °C -18.8 °C 34659.1 hPa East 35.7 km/h 35.7 km/h 70% 0 mm 452.0 W/m2 BKN
12:54 -16.3 °C -19.6 °C 34659.1 hPa NNE 32.8 km/h 32.8 km/h 66% 0 mm 436.0 W/m2 BKN
12:59 -16.4 °C -19.6 °C 34659.1 hPa ENE 26.9 km/h 26.9 km/h 66% 0 mm 396.0 W/m2 BKN
Juneau County Weather
Compliments of Weather Underground - 2.5 mb